Time;durP1;ratioP1;P1;durP2;ratioP2;P2;SDS_P1;SDS_P2;PMS_P1;PMS_P2;Temp;Humidity;BMP_temperature;BMP_pressure;BME280_temperature;BME280_humidity;BME280_pressure;Samples;Min_cycle;Max_cycle;Signal;HPM_P1;HPM_P2
2023/12/16 00:01:18;;;;;;;10.68;4.10;;;7.50;99.90;;;;;;5042741;28;20080;-76
2023/12/16 00:03:43;;;;;;;12.65;3.35;;;7.50;99.90;;;;;;5049785;28;20152;-76
2023/12/16 00:06:09;;;;;;;10.90;3.40;;;7.50;99.90;;;;;;5050716;28;20048;-75
2023/12/16 00:08:35;;;;;;;11.30;3.20;;;7.50;99.90;;;;;;5051517;28;20041;-77
2023/12/16 00:11:02;;;;;;;11.75;3.80;;;7.50;99.90;;;;;;5013895;28;20060;-76
2023/12/16 00:13:27;;;;;;;8.75;2.88;;;7.50;99.90;;;;;;5032400;28;20056;-76
2023/12/16 00:15:53;;;;;;;11.45;3.13;;;7.50;99.90;;;;;;5041360;28;20403;-75
2023/12/16 00:18:19;;;;;;;10.00;3.03;;;7.50;99.90;;;;;;5050486;28;20435;-75
2023/12/16 00:20:46;;;;;;;12.85;2.83;;;7.50;99.90;;;;;;5050143;28;20060;-76
2023/12/16 00:23:11;;;;;;;11.20;3.03;;;7.50;99.90;;;;;;5050899;28;20056;-74
2023/12/16 00:25:37;;;;;;;16.48;3.40;;;7.40;99.90;;;;;;5030453;28;20037;-75
2023/12/16 00:28:03;;;;;;;10.27;3.33;;;7.40;99.90;;;;;;5046281;28;20040;-76
2023/12/16 00:30:29;;;;;;;11.57;3.92;;;7.40;99.90;;;;;;5031872;28;20110;-76
2023/12/16 00:32:54;;;;;;;12.07;3.50;;;7.30;99.90;;;;;;5051122;28;20128;-76
2023/12/16 00:35:20;;;;;;;12.68;3.25;;;7.30;99.90;;;;;;5014374;28;20104;-75
2023/12/16 00:37:46;;;;;;;8.57;3.10;;;7.20;99.90;;;;;;5049947;28;20506;-75
2023/12/16 00:40:12;;;;;;;14.35;3.53;;;7.20;99.90;;;;;;5047406;28;20045;-75
2023/12/16 00:42:38;;;;;;;12.10;3.90;;;7.20;99.90;;;;;;5045121;28;20045;-76
2023/12/16 00:45:04;;;;;;;11.05;3.50;;;7.20;99.90;;;;;;5050432;28;20049;-76
2023/12/16 00:47:30;;;;;;;15.48;3.85;;;7.20;99.90;;;;;;5042039;28;20045;-76
2023/12/16 00:49:56;;;;;;;14.68;4.30;;;7.20;99.90;;;;;;5040337;28;20396;-76
2023/12/16 00:52:22;;;;;;;10.57;4.05;;;7.20;99.90;;;;;;5041795;28;20098;-76
2023/12/16 00:54:48;;;;;;;10.77;3.45;;;7.20;99.90;;;;;;5050590;28;20044;-75
2023/12/16 00:57:13;;;;;;;13.73;3.47;;;7.10;99.90;;;;;;5040026;28;20404;-76
2023/12/16 00:59:39;;;;;;;10.88;2.95;;;7.10;99.90;;;;;;5046861;28;20076;-76
2023/12/16 01:02:05;;;;;;;10.75;2.58;;;7.10;99.90;;;;;;5048463;28;20135;-76
2023/12/16 01:04:30;;;;;;;11.70;2.97;;;7.10;99.90;;;;;;5048511;28;20045;-76
2023/12/16 01:06:56;;;;;;;10.55;2.83;;;7.10;99.90;;;;;;5049359;28;20056;-76
2023/12/16 01:09:24;;;;;;;16.27;4.60;;;7.20;99.90;;;;;;5050027;28;20045;-75
2023/12/16 01:11:50;;;;;;;12.43;4.93;;;7.10;99.90;;;;;;5048949;28;20088;-75
2023/12/16 01:14:16;;;;;;;12.65;5.22;;;7.10;99.90;;;;;;5050424;28;20110;-75
2023/12/16 01:16:41;;;;;;;11.43;3.67;;;7.10;99.90;;;;;;5045013;28;20072;-76
2023/12/16 01:19:07;;;;;;;12.98;3.88;;;7.10;99.90;;;;;;5049195;28;20056;-75
2023/12/16 01:21:42;;;;;;;9.65;2.70;;;7.00;99.90;;;;;;5049448;28;20455;-75
2023/12/16 01:24:09;;;;;;;10.85;2.97;;;7.00;99.90;;;;;;5049043;28;20420;-76
2023/12/16 01:26:34;;;;;;;9.07;2.67;;;7.00;99.90;;;;;;5050843;28;20104;-76
2023/12/16 01:29:00;;;;;;;10.77;2.90;;;7.00;99.90;;;;;;5047637;28;20494;-76
2023/12/16 01:31:26;;;;;;;7.97;2.80;;;7.00;99.90;;;;;;5049812;28;20049;-76
2023/12/16 01:33:52;;;;;;;11.35;3.03;;;6.90;99.90;;;;;;5065402;28;20077;-76
2023/12/16 01:36:19;;;;;;;12.90;3.03;;;6.90;99.90;;;;;;5035907;28;20418;-75
2023/12/16 01:38:45;;;;;;;10.63;2.45;;;7.00;99.90;;;;;;5051588;28;20442;-76
2023/12/16 01:41:10;;;;;;;11.68;2.80;;;6.90;99.90;;;;;;5050646;28;20110;-76
2023/12/16 01:43:36;;;;;;;10.13;2.90;;;7.10;99.90;;;;;;5042364;28;20068;-76
2023/12/16 01:46:04;;;;;;;7.30;2.40;;;6.90;99.90;;;;;;5053645;28;20048;-75
2023/12/16 01:48:30;;;;;;;10.98;2.95;;;6.80;99.90;;;;;;5045773;28;20103;-76
2023/12/16 01:50:57;;;;;;;6.47;2.15;;;6.80;99.90;;;;;;5047282;28;20041;-75
2023/12/16 01:53:24;;;;;;;12.07;2.90;;;6.80;99.90;;;;;;5050348;28;20041;-77
2023/12/16 01:55:49;;;;;;;8.55;2.65;;;6.80;99.90;;;;;;5034406;28;20132;-76
2023/12/16 01:58:15;;;;;;;10.77;2.40;;;6.80;99.90;;;;;;5035959;28;20060;-76
2023/12/16 02:00:42;;;;;;;12.85;2.67;;;6.90;99.90;;;;;;5049340;28;20045;-77
2023/12/16 02:03:08;;;;;;;8.73;2.45;;;6.80;99.90;;;;;;5052044;28;20053;-77
2023/12/16 02:05:33;;;;;;;8.57;2.30;;;6.80;99.90;;;;;;5043875;28;20118;-75
2023/12/16 02:07:59;;;;;;;9.10;2.63;;;6.80;99.90;;;;;;5033937;28;20053;-76
2023/12/16 02:10:25;;;;;;;11.93;2.60;;;6.10;99.90;;;;;;5046722;28;20041;-76
2023/12/16 02:12:50;;;;;;;9.02;2.70;;;6.80;99.90;;;;;;5042893;28;20045;-77
2023/12/16 02:15:16;;;;;;;8.68;2.50;;;6.80;99.90;;;;;;5039923;28;20492;-76
2023/12/16 02:17:42;;;;;;;10.95;2.25;;;6.80;99.90;;;;;;5052702;28;20138;-76
2023/12/16 02:20:08;;;;;;;11.70;2.60;;;6.80;99.90;;;;;;5052997;28;20495;-76
2023/12/16 02:22:34;;;;;;;10.30;2.88;;;6.70;99.90;;;;;;5052792;28;20055;-76
2023/12/16 02:25:00;;;;;;;12.68;2.53;;;6.80;99.90;;;;;;5046105;28;20123;-75
2023/12/16 02:27:26;;;;;;;9.18;2.20;;;6.80;99.90;;;;;;5048738;28;20049;-76
2023/12/16 02:29:52;;;;;;;8.55;2.38;;;6.80;99.90;;;;;;5041738;28;20045;-77
2023/12/16 02:32:17;;;;;;;11.82;2.60;;;6.70;99.90;;;;;;5051725;28;20045;-76
2023/12/16 02:34:43;;;;;;;8.75;2.65;;;6.70;99.90;;;;;;5044940;28;20403;-76
2023/12/16 02:37:09;;;;;;;10.18;2.88;;;6.70;99.90;;;;;;5046234;28;20049;-75
2023/12/16 02:39:35;;;;;;;10.45;2.20;;;6.60;99.90;;;;;;5051873;28;20137;-76
2023/12/16 02:42:01;;;;;;;11.48;2.65;;;6.60;99.90;;;;;;5040674;28;20447;-75
2023/12/16 02:44:26;;;;;;;6.85;2.42;;;6.60;99.90;;;;;;5029251;28;20425;-75
2023/12/16 02:46:52;;;;;;;8.55;2.75;;;6.60;99.90;;;;;;5041865;28;20037;-76
2023/12/16 02:49:18;;;;;;;13.80;3.30;;;6.60;99.90;;;;;;5032516;28;20416;-76
2023/12/16 02:51:43;;;;;;;8.00;2.88;;;6.60;99.90;;;;;;5052452;28;20450;-76
2023/12/16 02:54:09;;;;;;;11.10;2.90;;;6.60;99.90;;;;;;5044415;28;20043;-77
2023/12/16 02:56:35;;;;;;;10.68;3.10;;;6.60;99.90;;;;;;5044080;28;20047;-77
2023/12/16 02:59:01;;;;;;;11.77;2.75;;;6.60;99.90;;;;;;5031845;28;20088;-76
2023/12/16 03:01:27;;;;;;;12.40;2.90;;;6.50;99.90;;;;;;5047364;28;20632;-77
2023/12/16 03:03:52;;;;;;;13.32;2.78;;;6.50;99.90;;;;;;5033049;28;20049;-75
2023/12/16 03:06:18;;;;;;;10.63;2.90;;;6.50;99.90;;;;;;5041724;28;20102;-76
2023/12/16 03:08:44;;;;;;;15.00;3.25;;;6.50;99.90;;;;;;5047792;28;20041;-77
2023/12/16 03:11:10;;;;;;;10.27;2.55;;;6.50;99.90;;;;;;5049680;28;20128;-76
2023/12/16 03:13:35;;;;;;;13.20;2.92;;;6.50;99.90;;;;;;5052562;28;20045;-76
2023/12/16 03:16:01;;;;;;;13.27;3.10;;;6.50;99.90;;;;;;5044349;28;20101;-76
2023/12/16 03:18:27;;;;;;;14.85;2.97;;;6.50;99.90;;;;;;5049130;28;20127;-77
2023/12/16 03:20:53;;;;;;;14.32;3.78;;;6.60;99.90;;;;;;5050976;28;20049;-76
2023/12/16 03:23:19;;;;;;;14.73;3.22;;;6.50;99.90;;;;;;5051867;28;20044;-77
2023/12/16 03:25:44;;;;;;;11.23;3.25;;;6.50;99.90;;;;;;5051428;28;20131;-75
2023/12/16 03:28:11;;;;;;;12.80;2.90;;;6.50;99.90;;;;;;5048501;28;20048;-76
2023/12/16 03:30:40;;;;;;;14.60;3.00;;;6.50;99.90;;;;;;5050658;28;20054;-75
2023/12/16 03:33:09;;;;;;;14.98;3.13;;;6.50;99.90;;;;;;5051184;28;20049;-77
2023/12/16 03:35:35;;;;;;;13.48;3.05;;;6.50;99.90;;;;;;5046895;28;20049;-75
2023/12/16 03:38:01;;;;;;;10.57;2.78;;;6.50;99.90;;;;;;5044127;28;20037;-77
2023/12/16 03:40:27;;;;;;;10.90;2.92;;;6.50;99.90;;;;;;5038675;28;20435;-76
2023/12/16 03:42:53;;;;;;;11.60;3.08;;;6.40;99.90;;;;;;5034476;28;20059;-75
2023/12/16 03:45:19;;;;;;;15.30;3.38;;;6.40;99.90;;;;;;5038380;28;20049;-76
2023/12/16 03:47:44;;;;;;;13.77;2.72;;;6.40;99.90;;;;;;5038448;28;20073;-77
2023/12/16 03:50:10;;;;;;;12.50;3.25;;;6.40;99.90;;;;;;5044601;28;20388;-76
2023/12/16 03:52:36;;;;;;;13.90;2.70;;;6.40;99.90;;;;;;5050382;28;20480;-75
2023/12/16 03:55:02;;;;;;;13.02;3.42;;;6.40;99.90;;;;;;5051934;28;20045;-76
2023/12/16 03:57:29;;;;;;;11.57;2.53;;;6.30;99.90;;;;;;5036833;28;20079;-76
2023/12/16 03:59:56;;;;;;;14.75;3.53;;;6.40;99.90;;;;;;5042277;28;20046;-75
2023/12/16 04:02:22;;;;;;;12.73;3.42;;;6.30;99.90;;;;;;5036713;28;20077;-75
2023/12/16 04:04:48;;;;;;;11.52;3.20;;;6.40;99.90;;;;;;5048031;28;20153;-76
2023/12/16 04:07:14;;;;;;;15.27;3.08;;;6.30;99.90;;;;;;5048894;28;20060;-76
2023/12/16 04:09:40;;;;;;;11.48;3.13;;;6.30;99.90;;;;;;5037050;28;20098;-76
2023/12/16 04:12:06;;;;;;;15.75;3.60;;;6.30;99.90;;;;;;5050682;28;20048;-76
2023/12/16 04:14:37;;;;;;;11.38;2.80;;;6.30;99.90;;;;;;5049857;28;20052;-76
2023/12/16 04:17:02;;;;;;;8.77;2.80;;;6.30;99.90;;;;;;5030456;28;20054;-76
2023/12/16 04:19:28;;;;;;;11.75;3.15;;;6.30;99.90;;;;;;5046256;28;20064;-76
2023/12/16 04:21:54;;;;;;;14.40;3.35;;;6.30;99.90;;;;;;5033191;28;20698;-76
2023/12/16 04:24:19;;;;;;;11.48;3.20;;;6.30;99.90;;;;;;5050223;28;20052;-75
2023/12/16 04:26:45;;;;;;;11.88;3.38;;;6.20;99.90;;;;;;5040788;28;20069;-77
2023/12/16 04:29:11;;;;;;;16.58;4.50;;;6.30;99.90;;;;;;5048532;28;20055;-75
2023/12/16 04:31:37;;;;;;;15.98;3.70;;;6.30;99.90;;;;;;5018772;28;20045;-76
2023/12/16 04:34:03;;;;;;;17.15;3.95;;;6.30;99.90;;;;;;5031221;28;20057;-76
2023/12/16 04:36:29;;;;;;;8.90;3.22;;;6.30;99.90;;;;;;5042052;28;20063;-75
2023/12/16 04:38:54;;;;;;;12.57;3.33;;;6.30;99.90;;;;;;5050317;28;20845;-76
2023/12/16 04:41:20;;;;;;;14.38;3.67;;;6.30;99.90;;;;;;5018626;28;20045;-75
2023/12/16 04:43:46;;;;;;;11.30;2.70;;;6.30;99.90;;;;;;5011367;28;20040;-76
2023/12/16 04:46:12;;;;;;;14.27;3.28;;;6.30;99.90;;;;;;5050916;28;20132;-77
2023/12/16 04:48:38;;;;;;;16.38;3.45;;;6.30;99.90;;;;;;5049669;28;20120;-76
2023/12/16 04:51:05;;;;;;;13.45;3.33;;;6.30;99.90;;;;;;5050040;28;20298;-77
2023/12/16 04:53:31;;;;;;;16.13;4.47;;;6.30;99.90;;;;;;5049714;28;20517;-77
2023/12/16 04:55:57;;;;;;;15.38;4.00;;;6.20;99.90;;;;;;5048532;28;20099;-77
2023/12/16 04:58:22;;;;;;;12.55;3.30;;;6.30;99.90;;;;;;5049755;28;20041;-76
2023/12/16 05:00:48;;;;;;;13.95;3.55;;;6.30;99.90;;;;;;5035558;28;20116;-75
2023/12/16 05:03:14;;;;;;;19.60;4.15;;;6.30;99.90;;;;;;5022487;28;20048;-76
2023/12/16 05:05:39;;;;;;;14.95;3.00;;;6.30;99.90;;;;;;5022436;28;20480;-76
2023/12/16 05:08:05;;;;;;;19.33;3.97;;;6.30;99.90;;;;;;5048920;28;20045;-76
2023/12/16 05:10:31;;;;;;;18.95;3.67;;;6.30;99.90;;;;;;5029548;28;20154;-76
2023/12/16 05:12:56;;;;;;;14.80;3.80;;;6.30;99.90;;;;;;5036319;28;20055;-76
2023/12/16 05:15:22;;;;;;;12.30;3.25;;;6.20;99.90;;;;;;5053863;28;20045;-76
2023/12/16 05:17:48;;;;;;;19.65;4.85;;;6.30;99.90;;;;;;5044253;28;20055;-76
2023/12/16 05:20:14;;;;;;;18.60;3.60;;;6.30;99.90;;;;;;5053048;28;20170;-77
2023/12/16 05:22:40;;;;;;;14.70;3.60;;;6.30;99.90;;;;;;5051245;28;20555;-75
2023/12/16 05:25:06;;;;;;;13.55;3.90;;;6.30;99.90;;;;;;5054923;28;20124;-76
2023/12/16 05:27:32;;;;;;;14.75;3.47;;;6.30;99.90;;;;;;5053648;28;20041;-75
2023/12/16 05:30:01;;;;;;;21.08;4.28;;;6.30;99.90;;;;;;5054504;28;20094;-76
2023/12/16 05:32:27;;;;;;;14.77;4.60;;;6.30;99.90;;;;;;5050671;28;20048;-76
2023/12/16 05:34:54;;;;;;;14.98;4.18;;;6.30;99.90;;;;;;5025674;28;20054;-76
2023/12/16 05:37:20;;;;;;;17.42;4.20;;;6.40;99.90;;;;;;5052878;28;20430;-76
2023/12/16 05:39:46;;;;;;;22.67;4.78;;;6.40;99.90;;;;;;5050362;28;20046;-76
2023/12/16 05:42:12;;;;;;;20.48;5.20;;;6.40;99.90;;;;;;5053447;28;20381;-76
2023/12/16 05:44:38;;;;;;;19.40;5.40;;;6.50;99.90;;;;;;5045141;28;20097;-76
2023/12/16 05:47:05;;;;;;;21.23;4.38;;;6.40;99.90;;;;;;5043599;28;20506;-76
2023/12/16 05:49:31;;;;;;;19.10;4.55;;;6.50;99.90;;;;;;5053914;28;20041;-75
2023/12/16 05:51:56;;;;;;;17.52;4.20;;;6.50;99.90;;;;;;5046532;28;20560;-76
2023/12/16 05:54:25;;;;;;;23.27;7.30;;;6.60;99.90;;;;;;5049178;28;20044;-76
2023/12/16 05:56:51;;;;;;;20.73;7.53;;;6.60;99.90;;;;;;5051770;28;20043;-76
2023/12/16 05:59:17;;;;;;;19.75;6.22;;;6.60;99.90;;;;;;5044330;28;20049;-77
2023/12/16 06:01:44;;;;;;;22.88;5.57;;;6.60;99.90;;;;;;5048814;28;20045;-77
2023/12/16 06:04:09;;;;;;;20.88;5.75;;;6.60;99.90;;;;;;5052799;28;20058;-77
2023/12/16 06:06:35;;;;;;;20.55;4.38;;;6.70;99.90;;;;;;5053562;28;20056;-75
2023/12/16 06:09:01;;;;;;;16.40;4.95;;;6.70;99.90;;;;;;5052412;28;20119;-77
2023/12/16 06:11:26;;;;;;;16.67;5.15;;;6.80;99.90;;;;;;5053229;28;20044;-76
2023/12/16 06:13:52;;;;;;;21.83;5.72;;;6.80;99.90;;;;;;5053404;28;20041;-77
2023/12/16 06:16:18;;;;;;;16.15;6.20;;;6.80;99.90;;;;;;5032888;28;20077;-76
2023/12/16 06:18:45;;;;;;;21.02;5.45;;;6.80;99.90;;;;;;5034287;28;20227;-76
2023/12/16 06:21:11;;;;;;;28.38;5.80;;;6.90;99.90;;;;;;5052771;28;20053;-76
2023/12/16 06:23:37;;;;;;;22.13;5.18;;;6.80;99.90;;;;;;5039014;28;20052;-76
2023/12/16 06:26:03;;;;;;;29.08;6.50;;;6.90;99.90;;;;;;5032933;28;20463;-76
2023/12/16 06:28:29;;;;;;;23.83;5.40;;;6.80;99.90;;;;;;5052359;28;20045;-76
2023/12/16 06:30:55;;;;;;;25.05;5.60;;;6.90;99.90;;;;;;5046134;28;20399;-77
2023/12/16 06:33:22;;;;;;;24.25;5.93;;;6.90;99.90;;;;;;5046750;28;20063;-76
2023/12/16 06:35:48;;;;;;;17.85;5.88;;;6.90;99.90;;;;;;5049340;28;20095;-76
2023/12/16 06:38:14;;;;;;;17.25;4.97;;;6.90;99.90;;;;;;5042735;28;20565;-76
2023/12/16 06:40:40;;;;;;;24.67;6.30;;;6.90;99.90;;;;;;5046150;28;20045;-76
2023/12/16 06:43:06;;;;;;;30.52;6.88;;;6.90;99.90;;;;;;5044758;28;20041;-76
2023/12/16 06:45:32;;;;;;;33.53;6.32;;;6.90;99.90;;;;;;5035880;28;20057;-76
2023/12/16 06:47:58;;;;;;;32.45;6.25;;;7.00;99.90;;;;;;5025305;28;20049;-76
2023/12/16 06:50:24;;;;;;;30.30;6.50;;;7.00;99.90;;;;;;5065336;28;20499;-76
2023/12/16 06:52:50;;;;;;;30.13;7.05;;;6.90;99.90;;;;;;5051593;28;20033;-77
2023/12/16 06:55:16;;;;;;;34.38;7.75;;;6.90;99.90;;;;;;5052047;28;20506;-76
2023/12/16 06:57:41;;;;;;;32.72;8.10;;;7.00;99.90;;;;;;5049326;28;20041;-76
2023/12/16 07:00:09;;;;;;;36.60;7.43;;;7.10;99.90;;;;;;5051788;28;20052;-75
2023/12/16 07:02:41;;;;;;;31.63;7.88;;;7.00;99.90;;;;;;5045731;28;20048;-76
2023/12/16 07:05:09;;;;;;;21.85;7.13;;;7.00;99.90;;;;;;5052022;28;20055;-76
2023/12/16 07:07:35;;;;;;;37.03;7.28;;;7.10;99.90;;;;;;5052458;28;20045;-77
2023/12/16 07:10:02;;;;;;;36.03;8.10;;;7.10;99.90;;;;;;5051023;28;20037;-76
2023/12/16 07:12:27;;;;;;;38.45;8.27;;;7.10;99.90;;;;;;5044386;28;20125;-75
2023/12/16 07:14:53;;;;;;;44.97;8.73;;;7.10;99.90;;;;;;5046646;28;20132;-76
2023/12/16 07:17:19;;;;;;;39.40;8.32;;;7.10;99.90;;;;;;5050821;28;20587;-76
2023/12/16 07:19:45;;;;;;;33.63;7.43;;;7.10;99.90;;;;;;5031496;28;20099;-74
2023/12/16 07:22:14;;;;;;;36.92;8.00;;;7.10;99.90;;;;;;5042678;28;20133;-76
2023/12/16 07:24:39;;;;;;;44.83;9.07;;;7.20;99.90;;;;;;5050813;28;20049;-76
2023/12/16 07:27:05;;;;;;;40.67;8.18;;;7.30;99.90;;;;;;5048691;28;20144;-75
2023/12/16 07:29:34;;;;;;;36.92;9.23;;;7.20;99.90;;;;;;5024842;28;20038;-74
2023/12/16 07:31:59;;;;;;;33.90;9.00;;;7.10;99.90;;;;;;5046246;28;20080;-74
2023/12/16 07:34:25;;;;;;;45.55;9.35;;;7.30;99.90;;;;;;5051312;28;20469;-75
2023/12/16 07:36:51;;;;;;;33.90;9.52;;;7.20;99.90;;;;;;5050616;28;20064;-74
2023/12/16 07:39:17;;;;;;;29.80;8.07;;;7.30;99.90;;;;;;5050690;28;20480;-75
2023/12/16 07:41:42;;;;;;;45.90;9.48;;;7.30;99.90;;;;;;5051940;28;20462;-73
2023/12/16 07:44:08;;;;;;;34.40;8.85;;;7.30;99.90;;;;;;5051103;28;20639;-73
2023/12/16 07:46:34;;;;;;;47.45;9.50;;;7.30;99.90;;;;;;5050971;28;20095;-72
2023/12/16 07:48:59;;;;;;;49.83;9.70;;;7.30;99.90;;;;;;5065199;28;20041;-74
2023/12/16 07:51:25;;;;;;;44.70;10.52;;;7.30;99.90;;;;;;5043544;28;20079;-73
2023/12/16 07:53:52;;;;;;;37.45;9.38;;;7.30;99.90;;;;;;5049197;28;20052;-74
2023/12/16 07:56:26;;;;;;;30.17;9.82;;;7.30;99.90;;;;;;5021719;28;20041;-74
2023/12/16 07:58:53;;;;;;;37.97;9.77;;;7.30;99.90;;;;;;5041374;28;20124;-74
2023/12/16 08:01:19;;;;;;;39.42;9.80;;;7.30;99.90;;;;;;5048383;28;20051;-74
2023/12/16 08:03:46;;;;;;;32.65;8.70;;;7.30;99.90;;;;;;5030705;28;20049;-75
2023/12/16 08:06:13;;;;;;;39.85;9.38;;;7.40;99.90;;;;;;5044070;28;20045;-74
2023/12/16 08:08:40;;;;;;;36.63;9.95;;;7.30;99.90;;;;;;5051439;28;20480;-74
2023/12/16 08:11:06;;;;;;;50.22;10.82;;;7.40;99.90;;;;;;5049599;28;20446;-75
2023/12/16 08:13:32;;;;;;;39.50;9.77;;;7.30;99.90;;;;;;5051421;28;20079;-75
2023/12/16 08:16:04;;;;;;;35.47;9.75;;;7.30;99.90;;;;;;5049193;28;20073;-74
2023/12/16 08:18:31;;;;;;;39.90;11.02;;;7.40;99.90;;;;;;5051493;28;20059;-76
2023/12/16 08:20:57;;;;;;;45.25;10.05;;;7.40;99.90;;;;;;5049009;28;20065;-76
2023/12/16 08:23:23;;;;;;;44.90;11.77;;;7.40;99.90;;;;;;5035993;28;20056;-77
2023/12/16 08:25:49;;;;;;;38.25;10.07;;;7.40;99.90;;;;;;5051092;28;20040;-76
2023/12/16 08:28:14;;;;;;;42.47;9.15;;;7.40;99.90;;;;;;5047450;28;20052;-75
2023/12/16 08:30:40;;;;;;;41.40;9.80;;;7.40;99.90;;;;;;5050794;28;20444;-76
2023/12/16 08:33:06;;;;;;;46.03;10.82;;;7.50;99.90;;;;;;5033513;28;20095;-76
2023/12/16 08:35:31;;;;;;;51.30;10.65;;;7.50;99.90;;;;;;5050880;28;20037;-74
2023/12/16 08:37:57;;;;;;;37.75;10.10;;;7.50;99.90;;;;;;5049933;28;20044;-73
2023/12/16 08:40:25;;;;;;;49.05;10.23;;;7.50;99.90;;;;;;5036108;28;20392;-76
2023/12/16 08:42:51;;;;;;;35.33;10.48;;;7.50;99.90;;;;;;5050831;28;20053;-75
2023/12/16 08:45:16;;;;;;;41.95;11.25;;;7.50;99.90;;;;;;5049800;28;20049;-75
2023/12/16 08:47:43;;;;;;;46.67;10.65;;;7.60;99.90;;;;;;5051156;28;20041;-74
2023/12/16 08:50:08;;;;;;;41.60;10.25;;;7.60;99.90;;;;;;5053575;28;20353;-74
2023/12/16 08:52:35;;;;;;;48.95;11.23;;;7.60;99.90;;;;;;5044840;28;20051;-74
2023/12/16 08:55:01;;;;;;;48.33;9.82;;;7.60;99.90;;;;;;5055113;28;20404;-74
2023/12/16 08:57:31;;;;;;;49.30;10.50;;;7.60;99.90;;;;;;5055105;28;20077;-74
2023/12/16 08:59:57;;;;;;;40.78;10.68;;;7.60;99.90;;;;;;5054356;28;20041;-74
2023/12/16 09:02:23;;;;;;;37.72;10.00;;;7.60;99.90;;;;;;5044845;28;20045;-73
2023/12/16 09:04:48;;;;;;;34.22;9.77;;;7.60;99.90;;;;;;5036368;28;20460;-73
2023/12/16 09:07:15;;;;;;;42.20;11.27;;;7.60;99.90;;;;;;5054522;28;20045;-73
2023/12/16 09:09:40;;;;;;;33.40;9.18;;;7.70;99.90;;;;;;5017030;28;20045;-73
2023/12/16 09:12:07;;;;;;;44.72;11.07;;;7.60;99.90;;;;;;5053154;28;20067;-72
2023/12/16 09:14:33;;;;;;;49.28;10.18;;;7.70;99.90;;;;;;5054324;28;20045;-73
2023/12/16 09:17:00;;;;;;;35.67;10.35;;;7.70;99.90;;;;;;5050090;28;20048;-72
2023/12/16 09:19:25;;;;;;;32.80;9.95;;;7.70;99.90;;;;;;5053489;28;20403;-72
2023/12/16 09:21:51;;;;;;;42.00;10.40;;;7.60;99.90;;;;;;5054656;28;20068;-72
2023/12/16 09:24:17;;;;;;;40.08;10.55;;;7.70;99.90;;;;;;5054211;28;20114;-73
2023/12/16 09:26:43;;;;;;;39.50;9.95;;;7.70;99.90;;;;;;5052850;28;20084;-73
2023/12/16 09:29:11;;;;;;;34.15;9.85;;;7.80;99.90;;;;;;5046898;28;20037;-74
2023/12/16 09:31:37;;;;;;;42.60;9.88;;;7.80;99.90;;;;;;5054623;28;20491;-73
2023/12/16 09:34:03;;;;;;;42.60;9.90;;;7.70;99.90;;;;;;5034753;28;20053;-73
2023/12/16 09:36:29;;;;;;;41.90;11.10;;;7.70;99.90;;;;;;5045102;28;20044;-73
2023/12/16 09:38:58;;;;;;;31.95;10.43;;;7.80;99.90;;;;;;5053928;28;20381;-73
2023/12/16 09:41:28;;;;;;;39.63;10.57;;;7.80;99.90;;;;;;5036092;28;20055;-73
2023/12/16 09:43:59;;;;;;;36.13;10.27;;;7.80;99.90;;;;;;5054864;28;20466;-71
2023/12/16 09:46:32;;;;;;;36.83;10.00;;;7.80;99.90;;;;;;5053920;28;20472;-72
2023/12/16 09:48:59;;;;;;;47.35;11.00;;;7.80;99.90;;;;;;5052810;28;20406;-73
2023/12/16 09:51:26;;;;;;;45.42;11.70;;;7.80;99.90;;;;;;5034739;28;20388;-74
2023/12/16 09:53:52;;;;;;;44.30;10.73;;;7.80;99.90;;;;;;5036440;28;20042;-73
2023/12/16 09:56:19;;;;;;;43.78;10.65;;;7.80;99.90;;;;;;5038921;28;20091;-73
2023/12/16 09:58:46;;;;;;;38.50;10.88;;;7.90;99.90;;;;;;5036656;28;20060;-74
2023/12/16 10:01:12;;;;;;;34.05;9.95;;;7.90;99.90;;;;;;5050889;28;20098;-73
2023/12/16 10:03:39;;;;;;;41.53;10.32;;;7.80;99.90;;;;;;5040639;28;20077;-73
2023/12/16 10:06:10;;;;;;;37.88;9.95;;;7.90;99.90;;;;;;5039785;28;20419;-73
2023/12/16 10:08:36;;;;;;;37.83;10.43;;;7.90;99.90;;;;;;5045220;28;20063;-74
2023/12/16 10:11:03;;;;;;;38.17;10.55;;;8.00;99.90;;;;;;5047778;28;20048;-74
2023/12/16 10:13:31;;;;;;;33.55;9.43;;;7.90;99.90;;;;;;5045506;28;20049;-74
2023/12/16 10:15:58;;;;;;;31.70;9.73;;;7.90;99.90;;;;;;5044753;28;20049;-73
2023/12/16 10:18:25;;;;;;;41.72;10.57;;;8.00;99.90;;;;;;5047064;28;20041;-73
2023/12/16 10:20:50;;;;;;;39.17;10.23;;;8.00;99.90;;;;;;5040170;28;20140;-73
2023/12/16 10:23:16;;;;;;;38.28;10.55;;;8.00;99.90;;;;;;5035570;28;20096;-74
2023/12/16 10:25:42;;;;;;;50.13;11.30;;;8.00;99.90;;;;;;5049623;28;20049;-74
2023/12/16 10:28:09;;;;;;;44.83;11.70;;;8.00;99.90;;;;;;5045004;28;20500;-73
2023/12/16 10:30:35;;;;;;;44.67;11.07;;;8.00;99.90;;;;;;5043433;28;20047;-74
2023/12/16 10:33:03;;;;;;;37.72;10.55;;;8.00;99.90;;;;;;5036074;28;20094;-73
2023/12/16 10:35:33;;;;;;;41.42;10.48;;;8.00;99.90;;;;;;5051703;28;20053;-73
2023/12/16 10:37:59;;;;;;;40.40;10.23;;;8.00;99.90;;;;;;5046660;28;20053;-74
2023/12/16 10:40:26;;;;;;;45.30;10.30;;;8.10;99.90;;;;;;5050625;28;20518;-72
2023/12/16 10:42:52;;;;;;;38.53;11.02;;;8.00;99.90;;;;;;5045956;28;20455;-73
2023/12/16 10:45:18;;;;;;;44.00;10.30;;;8.10;99.90;;;;;;5052757;28;20136;-73
2023/12/16 10:47:48;;;;;;;40.05;9.85;;;8.10;99.90;;;;;;5053351;28;20045;-74
2023/12/16 10:50:15;;;;;;;29.95;10.40;;;8.10;99.90;;;;;;5047457;28;20051;-74
2023/12/16 10:53:02;;;;;;;29.80;9.80;;;8.10;99.90;;;;;;5052880;28;20049;-75
2023/12/16 10:55:31;;;;;;;32.92;10.40;;;8.20;99.90;;;;;;5046559;28;20098;-74
2023/12/16 10:58:00;;;;;;;29.25;10.27;;;8.20;99.90;;;;;;5052474;28;20048;-72
2023/12/16 11:00:34;;;;;;;28.92;9.27;;;8.20;99.90;;;;;;5035219;28;20400;-73
2023/12/16 11:03:23;;;;;;;30.70;9.30;;;8.20;99.90;;;;;;5037992;28;20060;-72
2023/12/16 11:05:52;;;;;;;33.80;10.68;;;8.30;99.90;;;;;;5051210;28;20047;-74
2023/12/16 11:08:19;;;;;;;40.80;9.93;;;8.30;99.90;;;;;;5051975;28;20037;-73
2023/12/16 11:10:45;;;;;;;32.70;9.30;;;8.40;99.90;;;;;;5051311;28;20114;-72
2023/12/16 11:13:11;;;;;;;30.67;9.27;;;8.40;99.90;;;;;;5051249;28;20493;-73
2023/12/16 11:15:38;;;;;;;34.05;10.13;;;8.40;99.90;;;;;;5050045;28;20048;-72
2023/12/16 11:18:06;;;;;;;30.98;10.82;;;8.50;99.90;;;;;;5034923;28;20131;-73
2023/12/16 11:20:41;;;;;;;34.60;9.13;;;8.50;99.90;;;;;;5048699;28;20049;-72
2023/12/16 11:23:09;;;;;;;28.55;8.93;;;8.50;99.90;;;;;;5052517;28;20049;-73
2023/12/16 11:25:35;;;;;;;19.23;9.02;;;8.60;99.90;;;;;;5052258;28;20044;-73
2023/12/16 11:28:03;;;;;;;18.08;8.00;;;8.60;99.90;;;;;;5049726;28;20147;-74
2023/12/16 11:30:35;;;;;;;19.20;7.93;;;8.60;99.90;;;;;;5050679;28;20504;-74
2023/12/16 11:33:01;;;;;;;20.58;8.50;;;8.60;99.90;;;;;;5044433;28;20056;-74
2023/12/16 11:35:36;;;;;;;18.55;7.82;;;8.70;99.90;;;;;;5051736;28;20134;-73
2023/12/16 11:38:06;;;;;;;21.40;9.07;;;8.70;99.90;;;;;;5051986;28;20051;-74
2023/12/16 11:40:39;;;;;;;17.20;8.60;;;8.70;99.90;;;;;;5037705;28;20132;-74
2023/12/16 11:43:04;;;;;;;17.88;8.50;;;8.80;99.90;;;;;;5051330;28;20045;-73
2023/12/16 11:45:43;;;;;;;19.10;8.20;;;8.70;99.90;;;;;;5042303;28;20094;-74
2023/12/16 11:48:10;;;;;;;14.48;7.65;;;8.80;99.90;;;;;;5052020;28;20060;-73
2023/12/16 11:50:39;;;;;;;18.10;7.95;;;8.90;99.90;;;;;;5051740;28;20041;-73
2023/12/16 11:53:06;;;;;;;14.73;7.55;;;8.90;99.90;;;;;;5051027;28;20053;-73
2023/12/16 11:55:32;;;;;;;14.27;7.65;;;8.90;99.90;;;;;;5048664;28;20040;-73
2023/12/16 11:57:59;;;;;;;12.90;6.45;;;8.90;99.90;;;;;;5048487;28;20045;-74
2023/12/16 12:00:24;;;;;;;18.65;7.70;;;9.00;99.90;;;;;;5047068;28;20041;-73
2023/12/16 12:02:51;;;;;;;18.23;6.80;;;9.00;99.90;;;;;;5047011;28;20052;-74
2023/12/16 12:05:19;;;;;;;12.45;7.25;;;8.90;99.90;;;;;;5050628;28;20508;-73
2023/12/16 12:07:45;;;;;;;15.77;6.85;;;9.00;99.90;;;;;;5051095;28;20047;-73
2023/12/16 12:10:11;;;;;;;16.95;6.90;;;9.00;99.90;;;;;;5049437;28;20040;-74
2023/12/16 12:12:37;;;;;;;12.10;6.30;;;9.00;99.90;;;;;;5054260;28;20395;-74
2023/12/16 12:15:04;;;;;;;12.45;6.85;;;9.00;99.90;;;;;;5044506;28;20068;-73
2023/12/16 12:17:30;;;;;;;13.93;6.70;;;9.00;99.90;;;;;;5034602;28;20049;-72
2023/12/16 12:19:56;;;;;;;16.33;6.72;;;9.00;99.90;;;;;;5038286;28;20051;-73
2023/12/16 12:22:22;;;;;;;15.70;7.47;;;9.00;99.90;;;;;;5047203;28;20455;-73
2023/12/16 12:24:50;;;;;;;12.30;7.28;;;9.00;99.90;;;;;;5043820;28;20044;-73
2023/12/16 12:27:16;;;;;;;17.33;7.07;;;9.10;99.90;;;;;;5037886;28;27717;-73
2023/12/16 12:30:00;;;;;;;13.20;6.68;;;9.10;99.90;;;;;;5047285;28;20120;-74
2023/12/16 12:32:30;;;;;;;13.57;7.20;;;9.10;99.90;;;;;;5049792;28;20138;-73
2023/12/16 12:35:04;;;;;;;15.65;7.30;;;9.10;99.90;;;;;;5040456;28;20052;-73
2023/12/16 12:37:45;;;;;;;13.50;7.68;;;9.10;99.90;;;;;;5050032;28;20052;-73
2023/12/16 12:40:14;;;;;;;14.77;7.32;;;9.10;99.90;;;;;;5067051;28;20481;-75
2023/12/16 12:42:53;;;;;;;14.25;7.18;;;9.10;99.90;;;;;;5049622;28;20051;-74